sensor_id;sensor_type;location;lat;lon;timestamp;temperature;humidity
39519;DHT22;25200;53.394;10.414;2023-08-07T00:00:12;16.70;87.00
39519;DHT22;25200;53.394;10.414;2023-08-07T00:02:38;16.70;86.90
39519;DHT22;25200;53.394;10.414;2023-08-07T00:05:07;16.70;86.80
39519;DHT22;25200;53.394;10.414;2023-08-07T00:07:33;16.70;87.10
39519;DHT22;25200;53.394;10.414;2023-08-07T00:09:58;16.70;87.10
39519;DHT22;25200;53.394;10.414;2023-08-07T00:12:26;16.70;87.10
39519;DHT22;25200;53.394;10.414;2023-08-07T00:14:52;16.70;87.10
39519;DHT22;25200;53.394;10.414;2023-08-07T00:17:18;16.70;87.30
39519;DHT22;25200;53.394;10.414;2023-08-07T00:19:44;16.70;87.10
39519;DHT22;25200;53.394;10.414;2023-08-07T00:22:09;16.70;86.90
39519;DHT22;25200;53.394;10.414;2023-08-07T00:24:35;16.70;87.30
39519;DHT22;25200;53.394;10.414;2023-08-07T00:27:01;16.60;86.90
39519;DHT22;25200;53.394;10.414;2023-08-07T00:29:26;16.60;86.50
39519;DHT22;25200;53.394;10.414;2023-08-07T00:31:52;16.60;87.00
39519;DHT22;25200;53.394;10.414;2023-08-07T00:34:18;16.60;87.40
39519;DHT22;25200;53.394;10.414;2023-08-07T00:36:43;16.60;87.10
39519;DHT22;25200;53.394;10.414;2023-08-07T00:39:09;16.60;87.50
39519;DHT22;25200;53.394;10.414;2023-08-07T00:41:35;16.60;87.10
39519;DHT22;25200;53.394;10.414;2023-08-07T00:44:00;16.60;87.30
39519;DHT22;25200;53.394;10.414;2023-08-07T00:46:27;16.60;87.40
39519;DHT22;25200;53.394;10.414;2023-08-07T00:48:54;16.60;87.20
39519;DHT22;25200;53.394;10.414;2023-08-07T00:51:20;16.60;87.40
39519;DHT22;25200;53.394;10.414;2023-08-07T00:53:48;16.50;87.50
39519;DHT22;25200;53.394;10.414;2023-08-07T00:56:14;16.50;87.30
39519;DHT22;25200;53.394;10.414;2023-08-07T00:58:40;16.50;87.70
39519;DHT22;25200;53.394;10.414;2023-08-07T01:01:06;16.50;87.40
39519;DHT22;25200;53.394;10.414;2023-08-07T01:03:33;16.50;87.80
39519;DHT22;25200;53.394;10.414;2023-08-07T01:05:59;16.50;87.80
39519;DHT22;25200;53.394;10.414;2023-08-07T01:08:25;16.50;87.60
39519;DHT22;25200;53.394;10.414;2023-08-07T01:11:05;16.40;87.30
39519;DHT22;25200;53.394;10.414;2023-08-07T01:16:32;16.40;87.30
39519;DHT22;25200;53.394;10.414;2023-08-07T01:19:00;16.40;87.60
39519;DHT22;25200;53.394;10.414;2023-08-07T01:21:26;16.40;88.20
39519;DHT22;25200;53.394;10.414;2023-08-07T01:23:52;16.40;87.80
39519;DHT22;25200;53.394;10.414;2023-08-07T01:26:19;16.40;87.50
39519;DHT22;25200;53.394;10.414;2023-08-07T01:29:12;16.30;88.00
39519;DHT22;25200;53.394;10.414;2023-08-07T01:31:39;16.30;87.50
39519;DHT22;25200;53.394;10.414;2023-08-07T01:34:07;16.30;87.80
39519;DHT22;25200;53.394;10.414;2023-08-07T01:36:38;16.30;87.40
39519;DHT22;25200;53.394;10.414;2023-08-07T01:39:05;16.30;87.40
39519;DHT22;25200;53.394;10.414;2023-08-07T01:41:32;16.30;87.60
39519;DHT22;25200;53.394;10.414;2023-08-07T01:43:59;16.30;87.90
39519;DHT22;25200;53.394;10.414;2023-08-07T01:46:24;16.20;87.50
39519;DHT22;25200;53.394;10.414;2023-08-07T01:48:50;16.20;87.40
39519;DHT22;25200;53.394;10.414;2023-08-07T01:51:16;16.20;87.50
39519;DHT22;25200;53.394;10.414;2023-08-07T01:53:41;16.20;87.80
39519;DHT22;25200;53.394;10.414;2023-08-07T01:56:07;16.20;88.10
39519;DHT22;25200;53.394;10.414;2023-08-07T01:58:33;16.20;88.00
39519;DHT22;25200;53.394;10.414;2023-08-07T02:00:58;16.20;88.10
39519;DHT22;25200;53.394;10.414;2023-08-07T02:03:24;16.10;87.90
39519;DHT22;25200;53.394;10.414;2023-08-07T02:05:49;16.10;87.60
39519;DHT22;25200;53.394;10.414;2023-08-07T02:08:15;16.10;87.40
39519;DHT22;25200;53.394;10.414;2023-08-07T02:10:41;16.10;87.90
39519;DHT22;25200;53.394;10.414;2023-08-07T02:13:06;16.10;87.70
39519;DHT22;25200;53.394;10.414;2023-08-07T02:15:32;16.10;87.70
39519;DHT22;25200;53.394;10.414;2023-08-07T02:17:58;16.10;88.30
39519;DHT22;25200;53.394;10.414;2023-08-07T02:20:23;16.00;88.00
39519;DHT22;25200;53.394;10.414;2023-08-07T02:22:49;16.00;88.10
39519;DHT22;25200;53.394;10.414;2023-08-07T02:25:15;16.00;88.00
39519;DHT22;25200;53.394;10.414;2023-08-07T02:27:41;16.00;88.10
39519;DHT22;25200;53.394;10.414;2023-08-07T02:30:06;16.00;88.40
39519;DHT22;25200;53.394;10.414;2023-08-07T02:32:32;16.00;87.90
39519;DHT22;25200;53.394;10.414;2023-08-07T02:34:58;16.00;88.10
39519;DHT22;25200;53.394;10.414;2023-08-07T02:37:24;16.00;87.90
39519;DHT22;25200;53.394;10.414;2023-08-07T02:39:49;16.00;88.10
39519;DHT22;25200;53.394;10.414;2023-08-07T02:42:15;15.90;87.90
39519;DHT22;25200;53.394;10.414;2023-08-07T02:44:41;15.90;88.00
39519;DHT22;25200;53.394;10.414;2023-08-07T02:47:06;15.90;88.30
39519;DHT22;25200;53.394;10.414;2023-08-07T02:49:32;15.90;87.90
39519;DHT22;25200;53.394;10.414;2023-08-07T02:51:58;15.90;88.20
39519;DHT22;25200;53.394;10.414;2023-08-07T02:54:23;15.90;88.40
39519;DHT22;25200;53.394;10.414;2023-08-07T02:56:49;15.90;88.60
39519;DHT22;25200;53.394;10.414;2023-08-07T02:59:15;15.90;88.10
39519;DHT22;25200;53.394;10.414;2023-08-07T03:01:41;15.90;88.10
39519;DHT22;25200;53.394;10.414;2023-08-07T03:04:07;15.90;88.40
39519;DHT22;25200;53.394;10.414;2023-08-07T03:06:33;15.90;87.80
39519;DHT22;25200;53.394;10.414;2023-08-07T03:08:59;15.90;88.20
39519;DHT22;25200;53.394;10.414;2023-08-07T03:11:24;15.90;88.40
39519;DHT22;25200;53.394;10.414;2023-08-07T03:13:50;15.90;88.40
39519;DHT22;25200;53.394;10.414;2023-08-07T03:16:16;15.90;88.80
39519;DHT22;25200;53.394;10.414;2023-08-07T03:18:41;15.80;88.70
39519;DHT22;25200;53.394;10.414;2023-08-07T03:21:07;15.80;88.50
39519;DHT22;25200;53.394;10.414;2023-08-07T03:23:33;15.80;88.70
39519;DHT22;25200;53.394;10.414;2023-08-07T03:26:06;15.80;88.40
39519;DHT22;25200;53.394;10.414;2023-08-07T03:28:33;15.80;88.40
39519;DHT22;25200;53.394;10.414;2023-08-07T03:30:59;15.80;88.50
39519;DHT22;25200;53.394;10.414;2023-08-07T03:33:25;15.80;88.80
39519;DHT22;25200;53.394;10.414;2023-08-07T03:35:50;15.80;88.20
39519;DHT22;25200;53.394;10.414;2023-08-07T03:38:16;15.80;88.60
39519;DHT22;25200;53.394;10.414;2023-08-07T03:40:42;15.80;88.60
39519;DHT22;25200;53.394;10.414;2023-08-07T03:43:08;15.80;88.30
39519;DHT22;25200;53.394;10.414;2023-08-07T03:45:33;15.80;88.30
39519;DHT22;25200;53.394;10.414;2023-08-07T03:47:59;15.80;88.60
39519;DHT22;25200;53.394;10.414;2023-08-07T03:50:24;15.80;88.10
39519;DHT22;25200;53.394;10.414;2023-08-07T03:52:50;15.80;88.10
39519;DHT22;25200;53.394;10.414;2023-08-07T03:55:16;15.80;88.30
39519;DHT22;25200;53.394;10.414;2023-08-07T03:57:41;15.80;88.20
39519;DHT22;25200;53.394;10.414;2023-08-07T04:00:08;15.80;87.70
39519;DHT22;25200;53.394;10.414;2023-08-07T04:02:34;15.80;88.00
39519;DHT22;25200;53.394;10.414;2023-08-07T04:04:59;15.80;87.60
39519;DHT22;25200;53.394;10.414;2023-08-07T04:07:25;15.80;87.60
39519;DHT22;25200;53.394;10.414;2023-08-07T04:09:51;15.90;87.40
39519;DHT22;25200;53.394;10.414;2023-08-07T04:12:16;15.90;87.50
39519;DHT22;25200;53.394;10.414;2023-08-07T04:14:42;15.90;87.30
39519;DHT22;25200;53.394;10.414;2023-08-07T04:17:08;15.90;87.90
39519;DHT22;25200;53.394;10.414;2023-08-07T04:19:33;15.90;87.60
39519;DHT22;25200;53.394;10.414;2023-08-07T04:21:59;15.90;87.20
39519;DHT22;25200;53.394;10.414;2023-08-07T04:24:24;16.00;87.30
39519;DHT22;25200;53.394;10.414;2023-08-07T04:26:50;16.00;86.90
39519;DHT22;25200;53.394;10.414;2023-08-07T04:29:16;16.00;87.20
39519;DHT22;25200;53.394;10.414;2023-08-07T04:31:42;16.00;86.90
39519;DHT22;25200;53.394;10.414;2023-08-07T04:34:08;16.00;87.10
39519;DHT22;25200;53.394;10.414;2023-08-07T04:36:34;16.00;87.40
39519;DHT22;25200;53.394;10.414;2023-08-07T04:38:59;16.00;87.20
39519;DHT22;25200;53.394;10.414;2023-08-07T04:41:25;16.10;86.90
39519;DHT22;25200;53.394;10.414;2023-08-07T04:43:51;16.10;86.90
39519;DHT22;25200;53.394;10.414;2023-08-07T04:46:16;16.10;86.80
39519;DHT22;25200;53.394;10.414;2023-08-07T04:48:42;16.10;86.90
39519;DHT22;25200;53.394;10.414;2023-08-07T04:51:08;16.10;86.70
39519;DHT22;25200;53.394;10.414;2023-08-07T04:53:34;16.10;86.90
39519;DHT22;25200;53.394;10.414;2023-08-07T04:56:00;16.10;86.80
39519;DHT22;25200;53.394;10.414;2023-08-07T04:58:25;16.10;86.80
39519;DHT22;25200;53.394;10.414;2023-08-07T05:00:57;16.20;86.70
39519;DHT22;25200;53.394;10.414;2023-08-07T05:03:24;16.20;86.70
39519;DHT22;25200;53.394;10.414;2023-08-07T05:05:50;16.20;86.80
39519;DHT22;25200;53.394;10.414;2023-08-07T05:08:16;16.20;86.50
39519;DHT22;25200;53.394;10.414;2023-08-07T05:10:42;16.20;86.40
39519;DHT22;25200;53.394;10.414;2023-08-07T05:13:08;16.20;86.10
39519;DHT22;25200;53.394;10.414;2023-08-07T05:15:33;16.30;86.30
39519;DHT22;25200;53.394;10.414;2023-08-07T05:17:59;16.30;86.40
39519;DHT22;25200;53.394;10.414;2023-08-07T05:20:25;16.30;86.40
39519;DHT22;25200;53.394;10.414;2023-08-07T05:22:51;16.30;86.70
39519;DHT22;25200;53.394;10.414;2023-08-07T05:25:17;16.30;86.50
39519;DHT22;25200;53.394;10.414;2023-08-07T05:27:46;16.30;86.80
39519;DHT22;25200;53.394;10.414;2023-08-07T05:30:13;16.30;86.20
39519;DHT22;25200;53.394;10.414;2023-08-07T05:32:39;16.40;86.50
39519;DHT22;25200;53.394;10.414;2023-08-07T05:35:06;16.40;86.40
39519;DHT22;25200;53.394;10.414;2023-08-07T05:37:33;16.40;86.30
39519;DHT22;25200;53.394;10.414;2023-08-07T05:39:58;16.40;86.40
39519;DHT22;25200;53.394;10.414;2023-08-07T05:42:24;16.40;86.20
39519;DHT22;25200;53.394;10.414;2023-08-07T05:44:50;16.40;86.00
39519;DHT22;25200;53.394;10.414;2023-08-07T05:47:15;16.50;86.20
39519;DHT22;25200;53.394;10.414;2023-08-07T05:49:41;16.50;86.20
39519;DHT22;25200;53.394;10.414;2023-08-07T05:52:07;16.50;86.10
39519;DHT22;25200;53.394;10.414;2023-08-07T05:54:33;16.50;86.10
39519;DHT22;25200;53.394;10.414;2023-08-07T05:56:59;16.50;86.10
39519;DHT22;25200;53.394;10.414;2023-08-07T05:59:25;16.60;86.00
39519;DHT22;25200;53.394;10.414;2023-08-07T06:01:51;16.60;86.10
39519;DHT22;25200;53.394;10.414;2023-08-07T06:04:17;16.60;86.00
39519;DHT22;25200;53.394;10.414;2023-08-07T06:06:42;16.60;86.10
39519;DHT22;25200;53.394;10.414;2023-08-07T06:09:09;16.60;86.10
39519;DHT22;25200;53.394;10.414;2023-08-07T06:11:35;16.60;86.00
39519;DHT22;25200;53.394;10.414;2023-08-07T06:14:01;16.70;85.90
39519;DHT22;25200;53.394;10.414;2023-08-07T06:16:27;16.70;86.10
39519;DHT22;25200;53.394;10.414;2023-08-07T06:18:53;16.70;85.80
39519;DHT22;25200;53.394;10.414;2023-08-07T06:21:19;16.70;85.80
39519;DHT22;25200;53.394;10.414;2023-08-07T06:23:46;16.70;86.10
39519;DHT22;25200;53.394;10.414;2023-08-07T06:26:12;16.70;86.00
39519;DHT22;25200;53.394;10.414;2023-08-07T06:28:38;16.70;86.00
39519;DHT22;25200;53.394;10.414;2023-08-07T06:31:06;16.70;86.30
39519;DHT22;25200;53.394;10.414;2023-08-07T06:33:33;16.70;86.00
39519;DHT22;25200;53.394;10.414;2023-08-07T06:35:59;16.70;86.30
39519;DHT22;25200;53.394;10.414;2023-08-07T06:38:25;16.70;86.20
39519;DHT22;25200;53.394;10.414;2023-08-07T06:40:51;16.70;86.30
39519;DHT22;25200;53.394;10.414;2023-08-07T06:43:17;16.70;86.30
39519;DHT22;25200;53.394;10.414;2023-08-07T06:45:46;16.70;86.10
39519;DHT22;25200;53.394;10.414;2023-08-07T06:48:11;16.70;86.10
39519;DHT22;25200;53.394;10.414;2023-08-07T06:50:37;16.80;86.20
39519;DHT22;25200;53.394;10.414;2023-08-07T06:53:03;16.80;86.10
39519;DHT22;25200;53.394;10.414;2023-08-07T06:55:28;16.80;86.00
39519;DHT22;25200;53.394;10.414;2023-08-07T06:57:54;16.80;86.10
39519;DHT22;25200;53.394;10.414;2023-08-07T07:00:20;16.80;86.00
39519;DHT22;25200;53.394;10.414;2023-08-07T07:02:45;16.80;86.00
39519;DHT22;25200;53.394;10.414;2023-08-07T07:05:11;16.80;86.10
39519;DHT22;25200;53.394;10.414;2023-08-07T07:07:38;16.80;86.10
39519;DHT22;25200;53.394;10.414;2023-08-07T07:10:04;16.80;86.20
39519;DHT22;25200;53.394;10.414;2023-08-07T07:12:29;16.80;86.20
39519;DHT22;25200;53.394;10.414;2023-08-07T07:14:55;16.90;86.10
39519;DHT22;25200;53.394;10.414;2023-08-07T07:17:21;16.90;86.20
39519;DHT22;25200;53.394;10.414;2023-08-07T07:19:47;16.90;86.20
39519;DHT22;25200;53.394;10.414;2023-08-07T07:22:12;16.90;86.10
39519;DHT22;25200;53.394;10.414;2023-08-07T07:24:38;16.90;86.10
39519;DHT22;25200;53.394;10.414;2023-08-07T07:27:04;16.90;86.00
39519;DHT22;25200;53.394;10.414;2023-08-07T07:29:30;16.90;86.20
39519;DHT22;25200;53.394;10.414;2023-08-07T07:31:56;17.00;86.30
39519;DHT22;25200;53.394;10.414;2023-08-07T07:34:21;17.00;86.20
39519;DHT22;25200;53.394;10.414;2023-08-07T07:36:47;17.00;86.00
39519;DHT22;25200;53.394;10.414;2023-08-07T07:39:13;17.00;86.00
39519;DHT22;25200;53.394;10.414;2023-08-07T07:41:38;17.00;86.00
39519;DHT22;25200;53.394;10.414;2023-08-07T07:44:04;17.00;86.00
39519;DHT22;25200;53.394;10.414;2023-08-07T07:46:30;17.00;86.00
39519;DHT22;25200;53.394;10.414;2023-08-07T07:48:57;17.10;86.00
39519;DHT22;25200;53.394;10.414;2023-08-07T07:51:23;17.00;86.00
39519;DHT22;25200;53.394;10.414;2023-08-07T07:53:49;17.10;86.10
39519;DHT22;25200;53.394;10.414;2023-08-07T07:56:14;17.10;85.90
39519;DHT22;25200;53.394;10.414;2023-08-07T07:58:40;17.10;86.00
39519;DHT22;25200;53.394;10.414;2023-08-07T08:01:07;17.10;86.10
39519;DHT22;25200;53.394;10.414;2023-08-07T08:03:33;17.20;86.20
39519;DHT22;25200;53.394;10.414;2023-08-07T08:05:58;17.20;85.90
39519;DHT22;25200;53.394;10.414;2023-08-07T08:08:24;17.20;86.00
39519;DHT22;25200;53.394;10.414;2023-08-07T08:10:50;17.30;85.90
39519;DHT22;25200;53.394;10.414;2023-08-07T08:13:16;17.30;85.70
39519;DHT22;25200;53.394;10.414;2023-08-07T08:15:42;17.30;85.80
39519;DHT22;25200;53.394;10.414;2023-08-07T08:18:08;17.30;85.80
39519;DHT22;25200;53.394;10.414;2023-08-07T08:20:34;17.40;85.60
39519;DHT22;25200;53.394;10.414;2023-08-07T08:23:00;17.40;85.50
39519;DHT22;25200;53.394;10.414;2023-08-07T08:25:25;17.40;85.50
39519;DHT22;25200;53.394;10.414;2023-08-07T08:27:51;17.40;85.50
39519;DHT22;25200;53.394;10.414;2023-08-07T08:30:17;17.40;85.40
39519;DHT22;25200;53.394;10.414;2023-08-07T08:32:45;17.50;85.40
39519;DHT22;25200;53.394;10.414;2023-08-07T08:35:11;17.50;85.40
39519;DHT22;25200;53.394;10.414;2023-08-07T08:37:37;17.60;85.40
39519;DHT22;25200;53.394;10.414;2023-08-07T08:40:03;17.60;85.30
39519;DHT22;25200;53.394;10.414;2023-08-07T08:42:28;17.60;85.20
39519;DHT22;25200;53.394;10.414;2023-08-07T08:44:55;17.70;85.30
39519;DHT22;25200;53.394;10.414;2023-08-07T08:47:22;17.70;85.20
39519;DHT22;25200;53.394;10.414;2023-08-07T08:50:02;17.70;85.00
39519;DHT22;25200;53.394;10.414;2023-08-07T08:52:31;17.60;84.90
39519;DHT22;25200;53.394;10.414;2023-08-07T08:54:58;17.60;84.90
39519;DHT22;25200;53.394;10.414;2023-08-07T08:57:27;17.60;84.90
39519;DHT22;25200;53.394;10.414;2023-08-07T08:59:53;17.60;84.90
39519;DHT22;25200;53.394;10.414;2023-08-07T09:02:19;17.60;85.00
39519;DHT22;25200;53.394;10.414;2023-08-07T09:04:45;17.70;85.00
39519;DHT22;25200;53.394;10.414;2023-08-07T09:07:14;17.70;85.00
39519;DHT22;25200;53.394;10.414;2023-08-07T09:09:40;17.80;84.90
39519;DHT22;25200;53.394;10.414;2023-08-07T09:12:09;17.90;84.90
39519;DHT22;25200;53.394;10.414;2023-08-07T09:14:40;18.00;85.00
39519;DHT22;25200;53.394;10.414;2023-08-07T09:17:07;18.00;84.60
39519;DHT22;25200;53.394;10.414;2023-08-07T09:19:33;18.10;84.70
39519;DHT22;25200;53.394;10.414;2023-08-07T09:21:59;18.20;84.30
39519;DHT22;25200;53.394;10.414;2023-08-07T09:24:24;18.30;84.20
39519;DHT22;25200;53.394;10.414;2023-08-07T09:26:53;18.30;84.00
39519;DHT22;25200;53.394;10.414;2023-08-07T09:29:20;18.30;83.70
39519;DHT22;25200;53.394;10.414;2023-08-07T09:31:47;18.30;83.70
39519;DHT22;25200;53.394;10.414;2023-08-07T09:34:13;18.30;83.70
39519;DHT22;25200;53.394;10.414;2023-08-07T09:36:42;18.30;83.70
39519;DHT22;25200;53.394;10.414;2023-08-07T09:39:07;18.20;83.70
39519;DHT22;25200;53.394;10.414;2023-08-07T09:41:33;18.10;83.70
39519;DHT22;25200;53.394;10.414;2023-08-07T09:44:09;18.10;83.90
39519;DHT22;25200;53.394;10.414;2023-08-07T09:46:43;18.20;83.90
39519;DHT22;25200;53.394;10.414;2023-08-07T09:49:09;18.20;83.80
39519;DHT22;25200;53.394;10.414;2023-08-07T09:51:45;18.20;83.60
39519;DHT22;25200;53.394;10.414;2023-08-07T09:54:12;18.20;83.50
39519;DHT22;25200;53.394;10.414;2023-08-07T09:56:40;18.30;83.60
39519;DHT22;25200;53.394;10.414;2023-08-07T09:59:07;18.30;83.40
39519;DHT22;25200;53.394;10.414;2023-08-07T10:01:36;18.40;83.40
39519;DHT22;25200;53.394;10.414;2023-08-07T10:04:05;18.40;83.20
39519;DHT22;25200;53.394;10.414;2023-08-07T10:06:30;18.50;82.50
39519;DHT22;25200;53.394;10.414;2023-08-07T10:08:56;18.60;82.40
39519;DHT22;25200;53.394;10.414;2023-08-07T10:11:23;18.70;82.10
39519;DHT22;25200;53.394;10.414;2023-08-07T10:13:50;18.80;81.60
39519;DHT22;25200;53.394;10.414;2023-08-07T10:16:16;18.80;81.80
39519;DHT22;25200;53.394;10.414;2023-08-07T10:18:42;18.90;81.70
39519;DHT22;25200;53.394;10.414;2023-08-07T10:21:08;18.90;81.20
39519;DHT22;25200;53.394;10.414;2023-08-07T10:23:35;18.90;81.00
39519;DHT22;25200;53.394;10.414;2023-08-07T10:26:03;18.80;80.80
39519;DHT22;25200;53.394;10.414;2023-08-07T10:28:31;18.80;80.70
39519;DHT22;25200;53.394;10.414;2023-08-07T10:30:58;18.80;80.60
39519;DHT22;25200;53.394;10.414;2023-08-07T10:33:24;18.80;80.50
39519;DHT22;25200;53.394;10.414;2023-08-07T10:35:52;18.70;80.40
39519;DHT22;25200;53.394;10.414;2023-08-07T10:38:23;18.70;80.40
39519;DHT22;25200;53.394;10.414;2023-08-07T10:41:09;18.70;80.30
39519;DHT22;25200;53.394;10.414;2023-08-07T10:43:43;18.70;80.50
39519;DHT22;25200;53.394;10.414;2023-08-07T10:46:16;18.70;80.90
39519;DHT22;25200;53.394;10.414;2023-08-07T10:48:54;18.90;81.00
39519;DHT22;25200;53.394;10.414;2023-08-07T10:51:20;19.00;80.90
39519;DHT22;25200;53.394;10.414;2023-08-07T10:53:49;19.20;81.00
39519;DHT22;25200;53.394;10.414;2023-08-07T10:56:34;19.40;80.70
39519;DHT22;25200;53.394;10.414;2023-08-07T10:59:08;19.70;80.50
39519;DHT22;25200;53.394;10.414;2023-08-07T11:01:41;19.70;79.60
39519;DHT22;25200;53.394;10.414;2023-08-07T11:06:37;19.70;78.70
39519;DHT22;25200;53.394;10.414;2023-08-07T11:09:05;19.60;78.70
39519;DHT22;25200;53.394;10.414;2023-08-07T11:11:46;19.40;78.80
39519;DHT22;25200;53.394;10.414;2023-08-07T11:14:16;19.30;78.60
39519;DHT22;25200;53.394;10.414;2023-08-07T11:16:43;19.20;78.50
39519;DHT22;25200;53.394;10.414;2023-08-07T11:19:11;19.10;78.60
39519;DHT22;25200;53.394;10.414;2023-08-07T11:21:37;19.00;78.40
39519;DHT22;25200;53.394;10.414;2023-08-07T11:24:03;19.00;79.40
39519;DHT22;25200;53.394;10.414;2023-08-07T11:26:29;19.20;79.70
39519;DHT22;25200;53.394;10.414;2023-08-07T11:28:55;19.50;79.70
39519;DHT22;25200;53.394;10.414;2023-08-07T11:31:22;19.80;79.60
39519;DHT22;25200;53.394;10.414;2023-08-07T11:33:54;20.00;79.60
39519;DHT22;25200;53.394;10.414;2023-08-07T11:36:21;20.20;78.10
39519;DHT22;25200;53.394;10.414;2023-08-07T11:38:47;20.30;78.30
39519;DHT22;25200;53.394;10.414;2023-08-07T11:41:15;20.30;78.50
39519;DHT22;25200;53.394;10.414;2023-08-07T11:43:42;20.40;77.80
39519;DHT22;25200;53.394;10.414;2023-08-07T11:46:10;20.50;78.20
39519;DHT22;25200;53.394;10.414;2023-08-07T11:48:37;20.60;78.50
39519;DHT22;25200;53.394;10.414;2023-08-07T11:51:04;20.60;77.30
39519;DHT22;25200;53.394;10.414;2023-08-07T11:53:36;20.60;77.00
39519;DHT22;25200;53.394;10.414;2023-08-07T11:58:37;20.20;76.50
39519;DHT22;25200;53.394;10.414;2023-08-07T12:01:10;20.10;77.00
39519;DHT22;25200;53.394;10.414;2023-08-07T12:03:37;20.00;77.00
39519;DHT22;25200;53.394;10.414;2023-08-07T12:06:07;20.00;77.40
39519;DHT22;25200;53.394;10.414;2023-08-07T12:08:38;20.00;77.60
39519;DHT22;25200;53.394;10.414;2023-08-07T12:11:06;20.10;77.30
39519;DHT22;25200;53.394;10.414;2023-08-07T12:13:42;20.10;77.00
39519;DHT22;25200;53.394;10.414;2023-08-07T12:16:09;20.00;76.20
39519;DHT22;25200;53.394;10.414;2023-08-07T12:18:35;19.90;76.40
39519;DHT22;25200;53.394;10.414;2023-08-07T12:21:07;20.00;77.30
39519;DHT22;25200;53.394;10.414;2023-08-07T12:23:34;20.00;77.20
39519;DHT22;25200;53.394;10.414;2023-08-07T12:26:00;20.10;77.60
39519;DHT22;25200;53.394;10.414;2023-08-07T12:28:26;20.30;77.60
39519;DHT22;25200;53.394;10.414;2023-08-07T12:30:52;20.40;77.30
39519;DHT22;25200;53.394;10.414;2023-08-07T12:33:18;20.40;76.70
39519;DHT22;25200;53.394;10.414;2023-08-07T12:35:44;20.40;76.60
39519;DHT22;25200;53.394;10.414;2023-08-07T12:38:10;20.40;77.00
39519;DHT22;25200;53.394;10.414;2023-08-07T12:40:37;20.40;76.30
39519;DHT22;25200;53.394;10.414;2023-08-07T12:43:06;20.30;75.80
39519;DHT22;25200;53.394;10.414;2023-08-07T12:45:32;20.10;75.80
39519;DHT22;25200;53.394;10.414;2023-08-07T12:47:58;19.90;75.50
39519;DHT22;25200;53.394;10.414;2023-08-07T12:50:24;19.70;76.30
39519;DHT22;25200;53.394;10.414;2023-08-07T12:52:50;19.60;76.90
39519;DHT22;25200;53.394;10.414;2023-08-07T12:55:16;19.40;77.30
39519;DHT22;25200;53.394;10.414;2023-08-07T12:57:43;19.30;78.30
39519;DHT22;25200;53.394;10.414;2023-08-07T13:00:12;19.30;78.20
39519;DHT22;25200;53.394;10.414;2023-08-07T13:02:47;19.30;78.50
39519;DHT22;25200;53.394;10.414;2023-08-07T13:05:14;19.40;78.80
39519;DHT22;25200;53.394;10.414;2023-08-07T13:07:40;19.50;78.80
39519;DHT22;25200;53.394;10.414;2023-08-07T13:10:07;19.50;78.90
39519;DHT22;25200;53.394;10.414;2023-08-07T13:12:35;19.60;78.70
39519;DHT22;25200;53.394;10.414;2023-08-07T13:15:02;19.60;78.50
39519;DHT22;25200;53.394;10.414;2023-08-07T13:17:28;19.60;78.20
39519;DHT22;25200;53.394;10.414;2023-08-07T13:19:53;19.60;78.20
39519;DHT22;25200;53.394;10.414;2023-08-07T13:22:19;19.50;78.00
39519;DHT22;25200;53.394;10.414;2023-08-07T13:24:44;19.50;77.90
39519;DHT22;25200;53.394;10.414;2023-08-07T13:27:10;19.40;77.90
39519;DHT22;25200;53.394;10.414;2023-08-07T13:29:36;19.30;77.90
39519;DHT22;25200;53.394;10.414;2023-08-07T13:32:02;19.30;77.80
39519;DHT22;25200;53.394;10.414;2023-08-07T13:34:35;19.20;77.80
39519;DHT22;25200;53.394;10.414;2023-08-07T13:37:02;19.20;77.80
39519;DHT22;25200;53.394;10.414;2023-08-07T13:39:27;19.10;77.90
39519;DHT22;25200;53.394;10.414;2023-08-07T13:41:53;19.00;77.80
39519;DHT22;25200;53.394;10.414;2023-08-07T13:44:19;19.00;78.20
39519;DHT22;25200;53.394;10.414;2023-08-07T13:46:45;19.10;78.30
39519;DHT22;25200;53.394;10.414;2023-08-07T13:49:13;19.10;78.20
39519;DHT22;25200;53.394;10.414;2023-08-07T13:51:40;19.00;78.00
39519;DHT22;25200;53.394;10.414;2023-08-07T13:54:05;19.10;78.00
39519;DHT22;25200;53.394;10.414;2023-08-07T13:56:31;19.10;77.90
39519;DHT22;25200;53.394;10.414;2023-08-07T13:58:57;19.10;78.10
39519;DHT22;25200;53.394;10.414;2023-08-07T14:01:22;19.10;78.20
39519;DHT22;25200;53.394;10.414;2023-08-07T14:03:49;19.20;78.10
39519;DHT22;25200;53.394;10.414;2023-08-07T14:06:14;19.20;78.10
39519;DHT22;25200;53.394;10.414;2023-08-07T14:08:40;19.30;78.50
39519;DHT22;25200;53.394;10.414;2023-08-07T14:11:05;19.40;78.20
39519;DHT22;25200;53.394;10.414;2023-08-07T14:13:31;19.40;77.70
39519;DHT22;25200;53.394;10.414;2023-08-07T14:15:57;19.40;77.30
39519;DHT22;25200;53.394;10.414;2023-08-07T14:18:22;19.30;77.50
39519;DHT22;25200;53.394;10.414;2023-08-07T14:20:48;19.30;77.50
39519;DHT22;25200;53.394;10.414;2023-08-07T14:23:14;19.20;77.50
39519;DHT22;25200;53.394;10.414;2023-08-07T14:25:39;19.20;77.30
39519;DHT22;25200;53.394;10.414;2023-08-07T14:28:05;19.20;77.50
39519;DHT22;25200;53.394;10.414;2023-08-07T14:30:33;19.10;77.60
39519;DHT22;25200;53.394;10.414;2023-08-07T14:32:59;19.20;77.50
39519;DHT22;25200;53.394;10.414;2023-08-07T14:35:24;19.20;77.70
39519;DHT22;25200;53.394;10.414;2023-08-07T14:37:50;19.30;77.80
39519;DHT22;25200;53.394;10.414;2023-08-07T14:40:16;19.40;78.00
39519;DHT22;25200;53.394;10.414;2023-08-07T14:42:41;19.50;77.90
39519;DHT22;25200;53.394;10.414;2023-08-07T14:45:07;19.60;77.20
39519;DHT22;25200;53.394;10.414;2023-08-07T14:47:33;19.60;76.70
39519;DHT22;25200;53.394;10.414;2023-08-07T14:49:59;19.50;76.20
39519;DHT22;25200;53.394;10.414;2023-08-07T14:52:24;19.40;76.40
39519;DHT22;25200;53.394;10.414;2023-08-07T14:54:50;19.30;77.10
39519;DHT22;25200;53.394;10.414;2023-08-07T14:57:16;19.30;76.50
39519;DHT22;25200;53.394;10.414;2023-08-07T14:59:41;19.20;76.50
39519;DHT22;25200;53.394;10.414;2023-08-07T15:02:07;19.20;75.80
39519;DHT22;25200;53.394;10.414;2023-08-07T15:04:33;19.00;75.80
39519;DHT22;25200;53.394;10.414;2023-08-07T15:06:58;19.00;76.00
39519;DHT22;25200;53.394;10.414;2023-08-07T15:09:24;18.90;75.90
39519;DHT22;25200;53.394;10.414;2023-08-07T15:11:50;18.90;76.20
39519;DHT22;25200;53.394;10.414;2023-08-07T15:14:16;18.90;76.20
39519;DHT22;25200;53.394;10.414;2023-08-07T15:16:42;18.90;75.90
39519;DHT22;25200;53.394;10.414;2023-08-07T15:19:08;18.80;75.60